sensor_id;sensor_type;location;lat;lon;timestamp;pressure;altitude;pressure_sealevel;temperature;humidity
56074;BME280;41950;55.840;37.442;2023-02-21T00:02:13;97401.50;;;-10.09;74.72
56074;BME280;41950;55.840;37.442;2023-02-21T00:04:57;97390.56;;;-10.11;74.61
56074;BME280;41950;55.840;37.442;2023-02-21T00:07:42;97385.00;;;-10.00;74.50
56074;BME280;41950;55.840;37.442;2023-02-21T00:10:26;97328.19;;;-10.32;74.56
56074;BME280;41950;55.840;37.442;2023-02-21T00:13:10;97388.44;;;-9.96;74.12
56074;BME280;41950;55.840;37.442;2023-02-21T00:15:55;97387.50;;;-10.00;74.15
56074;BME280;41950;55.840;37.442;2023-02-21T00:18:40;97374.94;;;-10.01;74.25
56074;BME280;41950;55.840;37.442;2023-02-21T00:21:27;97368.88;;;-10.09;74.36
56074;BME280;41950;55.840;37.442;2023-02-21T00:24:17;97366.44;;;-10.06;74.46
56074;BME280;41950;55.840;37.442;2023-02-21T00:27:02;97336.75;;;-10.24;74.26
56074;BME280;41950;55.840;37.442;2023-02-21T00:29:47;97365.63;;;-10.05;74.11
56074;BME280;41950;55.840;37.442;2023-02-21T00:32:32;97342.44;;;-10.30;73.97
56074;BME280;41950;55.840;37.442;2023-02-21T00:35:16;97377.22;;;-10.10;74.05
56074;BME280;41950;55.840;37.442;2023-02-21T00:38:00;97328.06;;;-10.37;73.86
56074;BME280;41950;55.840;37.442;2023-02-21T00:40:44;97332.00;;;-10.45;73.94
56074;BME280;41950;55.840;37.442;2023-02-21T00:43:29;97365.13;;;-10.25;74.45
56074;BME280;41950;55.840;37.442;2023-02-21T00:46:14;97332.84;;;-10.44;74.32
56074;BME280;41950;55.840;37.442;2023-02-21T00:48:58;97349.56;;;-10.45;74.11
56074;BME280;41950;55.840;37.442;2023-02-21T00:51:43;97352.72;;;-10.52;74.60
56074;BME280;41950;55.840;37.442;2023-02-21T00:54:27;97341.63;;;-10.60;74.68
56074;BME280;41950;55.840;37.442;2023-02-21T00:57:12;97349.84;;;-10.66;74.60
56074;BME280;41950;55.840;37.442;2023-02-21T00:59:56;97348.75;;;-10.74;74.78
56074;BME280;41950;55.840;37.442;2023-02-21T01:02:40;97312.09;;;-11.00;74.88
56074;BME280;41950;55.840;37.442;2023-02-21T01:05:25;97339.69;;;-10.99;74.94
56074;BME280;41950;55.840;37.442;2023-02-21T01:08:09;97342.00;;;-11.05;75.12
56074;BME280;41950;55.840;37.442;2023-02-21T01:10:54;97350.22;;;-11.10;75.29
56074;BME280;41950;55.840;37.442;2023-02-21T01:13:37;97330.72;;;-11.20;75.28
56074;BME280;41950;55.840;37.442;2023-02-21T01:16:22;97322.75;;;-11.36;75.45
56074;BME280;41950;55.840;37.442;2023-02-21T01:19:06;97269.84;;;-11.75;75.54
56074;BME280;41950;55.840;37.442;2023-02-21T01:21:50;97334.22;;;-11.42;75.79
56074;BME280;41950;55.840;37.442;2023-02-21T01:24:35;97325.63;;;-11.50;75.82
56074;BME280;41950;55.840;37.442;2023-02-21T01:27:19;97326.53;;;-11.48;75.97
56074;BME280;41950;55.840;37.442;2023-02-21T01:30:03;97314.44;;;-11.62;76.00
56074;BME280;41950;55.840;37.442;2023-02-21T01:32:47;97323.72;;;-11.58;76.16
56074;BME280;41950;55.840;37.442;2023-02-21T01:35:31;97309.06;;;-11.74;76.16
56074;BME280;41950;55.840;37.442;2023-02-21T01:38:15;97299.88;;;-11.75;76.10
56074;BME280;41950;55.840;37.442;2023-02-21T01:41:00;97298.16;;;-11.76;76.14
56074;BME280;41950;55.840;37.442;2023-02-21T01:43:58;97300.50;;;-11.82;75.97
56074;BME280;41950;55.840;37.442;2023-02-21T01:46:43;97320.69;;;-11.76;76.01
56074;BME280;41950;55.840;37.442;2023-02-21T01:49:28;97328.19;;;-11.76;76.12
56074;BME280;41950;55.840;37.442;2023-02-21T01:52:12;97320.72;;;-11.74;76.00
56074;BME280;41950;55.840;37.442;2023-02-21T01:54:57;97309.06;;;-11.74;75.80
56074;BME280;41950;55.840;37.442;2023-02-21T01:57:43;97303.69;;;-11.86;75.49
56074;BME280;41950;55.840;37.442;2023-02-21T02:00:28;97322.00;;;-11.87;75.59
56074;BME280;41950;55.840;37.442;2023-02-21T02:03:16;97329.50;;;-11.87;75.74
56074;BME280;41950;55.840;37.442;2023-02-21T02:06:04;97320.22;;;-11.91;75.50
56074;BME280;41950;55.840;37.442;2023-02-21T02:08:48;97305.81;;;-11.98;75.82
56074;BME280;41950;55.840;37.442;2023-02-21T02:45:00;97296.16;;;-12.13;74.92
56074;BME280;41950;55.840;37.442;2023-02-21T02:47:34;97312.34;;;-12.03;74.83
56074;BME280;41950;55.840;37.442;2023-02-21T02:50:02;97325.03;;;-11.97;74.85
56074;BME280;41950;55.840;37.442;2023-02-21T02:52:29;97259.94;;;-12.26;74.77
56074;BME280;41950;55.840;37.442;2023-02-21T02:55:23;97323.50;;;-11.92;73.91
56074;BME280;41950;55.840;37.442;2023-02-21T02:57:54;97306.72;;;-11.96;73.98
56074;BME280;41950;55.840;37.442;2023-02-21T03:00:21;97273.63;;;-12.14;73.79
56074;BME280;41950;55.840;37.442;2023-02-21T03:05:59;97316.47;;;-12.04;73.31
56074;BME280;41950;55.840;37.442;2023-02-21T03:08:29;97318.00;;;-12.07;73.50
56074;BME280;41950;55.840;37.442;2023-02-21T03:11:19;97286.44;;;-12.31;73.41
56074;BME280;41950;55.840;37.442;2023-02-21T03:14:08;97319.09;;;-12.01;73.32
56074;BME280;41950;55.840;37.442;2023-02-21T03:16:52;97297.72;;;-12.17;72.96
56074;BME280;41950;55.840;37.442;2023-02-21T03:19:26;97317.91;;;-12.10;73.36
56074;BME280;41950;55.840;37.442;2023-02-21T03:22:00;97316.13;;;-12.14;73.46
56074;BME280;41950;55.840;37.442;2023-02-21T03:24:28;97311.88;;;-12.17;73.21
56074;BME280;41950;55.840;37.442;2023-02-21T03:26:56;97310.97;;;-12.19;73.37
56074;BME280;41950;55.840;37.442;2023-02-21T03:29:24;97298.22;;;-12.27;73.49
56074;BME280;41950;55.840;37.442;2023-02-21T03:31:57;97316.81;;;-12.19;73.65
56074;BME280;41950;55.840;37.442;2023-02-21T03:34:24;97277.72;;;-12.42;73.57
56074;BME280;41950;55.840;37.442;2023-02-21T03:36:50;97290.34;;;-12.37;73.57
56074;BME280;41950;55.840;37.442;2023-02-21T03:39:16;97301.47;;;-12.29;73.63
56074;BME280;41950;55.840;37.442;2023-02-21T03:41:42;97315.72;;;-12.27;73.45
56074;BME280;41950;55.840;37.442;2023-02-21T03:44:07;97283.41;;;-12.46;73.29
56074;BME280;41950;55.840;37.442;2023-02-21T03:46:33;97310.63;;;-12.30;73.46
56074;BME280;41950;55.840;37.442;2023-02-21T03:48:59;97312.16;;;-12.33;73.44
56074;BME280;41950;55.840;37.442;2023-02-21T03:51:24;97306.66;;;-12.49;73.42
56074;BME280;41950;55.840;37.442;2023-02-21T03:53:50;97319.88;;;-12.51;73.67
56074;BME280;41950;55.840;37.442;2023-02-21T03:56:15;97307.06;;;-12.60;73.82
56074;BME280;41950;55.840;37.442;2023-02-21T03:58:41;97297.63;;;-12.69;74.02
56074;BME280;41950;55.840;37.442;2023-02-21T04:01:07;97312.56;;;-12.70;74.01
56074;BME280;41950;55.840;37.442;2023-02-21T04:03:33;97278.53;;;-12.91;74.07
56074;BME280;41950;55.840;37.442;2023-02-21T04:05:58;97320.03;;;-12.70;73.97
56074;BME280;41950;55.840;37.442;2023-02-21T04:08:24;97309.63;;;-12.83;73.72
56074;BME280;41950;55.840;37.442;2023-02-21T04:10:50;97317.97;;;-12.82;73.85
56074;BME280;41950;55.840;37.442;2023-02-21T04:13:15;97315.97;;;-12.91;73.99
56074;BME280;41950;55.840;37.442;2023-02-21T04:15:41;97323.25;;;-12.97;74.07
56074;BME280;41950;55.840;37.442;2023-02-21T04:18:07;97283.25;;;-13.22;74.04
56074;BME280;41950;55.840;37.442;2023-02-21T04:20:32;97301.53;;;-13.23;73.91
56074;BME280;41950;55.840;37.442;2023-02-21T04:22:58;97274.03;;;-13.47;73.92
56074;BME280;41950;55.840;37.442;2023-02-21T04:25:23;97308.69;;;-13.32;74.21
56074;BME280;41950;55.840;37.442;2023-02-21T04:27:49;97235.19;;;-13.85;74.37
56074;BME280;41950;55.840;37.442;2023-02-21T04:30:15;97317.34;;;-13.45;74.53
56074;BME280;41950;55.840;37.442;2023-02-21T04:32:40;97323.00;;;-13.49;74.41
56074;BME280;41950;55.840;37.442;2023-02-21T04:35:06;97321.25;;;-13.52;74.65
56074;BME280;41950;55.840;37.442;2023-02-21T04:37:32;97318.66;;;-13.55;74.75
56074;BME280;41950;55.840;37.442;2023-02-21T04:39:58;97324.47;;;-13.54;74.83
56074;BME280;41950;55.840;37.442;2023-02-21T04:42:23;97309.97;;;-13.64;74.87
56074;BME280;41950;55.840;37.442;2023-02-21T04:44:49;97315.03;;;-13.63;75.00
56074;BME280;41950;55.840;37.442;2023-02-21T04:47:15;97330.28;;;-13.55;75.09
56074;BME280;41950;55.840;37.442;2023-02-21T04:49:42;97282.75;;;-13.81;74.94
56074;BME280;41950;55.840;37.442;2023-02-21T04:52:07;97303.09;;;-13.70;74.79
56074;BME280;41950;55.840;37.442;2023-02-21T04:54:33;97323.25;;;-13.65;74.69
56074;BME280;41950;55.840;37.442;2023-02-21T04:56:59;97313.72;;;-13.74;74.74
56074;BME280;41950;55.840;37.442;2023-02-21T04:59:24;97341.53;;;-13.65;74.78
56074;BME280;41950;55.840;37.442;2023-02-21T05:01:50;97339.00;;;-13.66;74.65
56074;BME280;41950;55.840;37.442;2023-02-21T05:04:16;97299.66;;;-13.94;74.84
56074;BME280;41950;55.840;37.442;2023-02-21T05:06:41;97345.69;;;-13.65;74.69
56074;BME280;41950;55.840;37.442;2023-02-21T05:09:07;97298.03;;;-13.94;74.81
56074;BME280;41950;55.840;37.442;2023-02-21T05:11:33;97350.84;;;-13.61;74.64
56074;BME280;41950;55.840;37.442;2023-02-21T05:13:59;97350.16;;;-13.57;74.50
56074;BME280;41950;55.840;37.442;2023-02-21T05:16:25;97340.19;;;-13.57;74.19
56074;BME280;41950;55.840;37.442;2023-02-21T05:18:51;97320.69;;;-13.67;74.13
56074;BME280;41950;55.840;37.442;2023-02-21T05:21:17;97341.84;;;-13.57;73.98
56074;BME280;41950;55.840;37.442;2023-02-21T05:23:44;97316.22;;;-13.74;74.12
56074;BME280;41950;55.840;37.442;2023-02-21T05:26:25;97346.09;;;-13.55;73.88
56074;BME280;41950;55.840;37.442;2023-02-21T05:28:51;97348.47;;;-13.58;73.59
56074;BME280;41950;55.840;37.442;2023-02-21T05:31:17;97307.38;;;-13.88;73.58
56074;BME280;41950;55.840;37.442;2023-02-21T05:33:43;97299.00;;;-13.90;73.67
56074;BME280;41950;55.840;37.442;2023-02-21T05:36:09;97297.47;;;-13.87;73.32
56074;BME280;41950;55.840;37.442;2023-02-21T05:38:50;97351.88;;;-13.56;73.22
56074;BME280;41950;55.840;37.442;2023-02-21T05:41:17;97348.53;;;-13.56;73.27
56074;BME280;41950;55.840;37.442;2023-02-21T05:43:48;97317.03;;;-13.75;73.30
56074;BME280;41950;55.840;37.442;2023-02-21T05:48:42;97342.34;;;-13.44;72.92
56074;BME280;41950;55.840;37.442;2023-02-21T05:51:08;97344.97;;;-13.40;73.13
56074;BME280;41950;55.840;37.442;2023-02-21T05:53:34;97343.44;;;-13.37;72.95
56074;BME280;41950;55.840;37.442;2023-02-21T05:55:59;97322.53;;;-13.40;72.77
56074;BME280;41950;55.840;37.442;2023-02-21T05:58:25;97352.44;;;-13.18;72.65
56074;BME280;41950;55.840;37.442;2023-02-21T06:00:51;97353.47;;;-13.13;72.36
56074;BME280;41950;55.840;37.442;2023-02-21T06:03:16;97356.81;;;-13.13;72.17
56074;BME280;41950;55.840;37.442;2023-02-21T06:05:42;97350.19;;;-13.12;71.58
56074;BME280;41950;55.840;37.442;2023-02-21T06:08:08;97348.53;;;-13.12;71.65
56074;BME280;41950;55.840;37.442;2023-02-21T06:10:34;97352.84;;;-13.07;71.33
56074;BME280;41950;55.840;37.442;2023-02-21T06:13:00;97322.97;;;-13.28;71.05
56074;BME280;41950;55.840;37.442;2023-02-21T06:15:25;97353.38;;;-13.15;70.99
56074;BME280;41950;55.840;37.442;2023-02-21T06:17:51;97332.03;;;-13.30;71.32
56074;BME280;41950;55.840;37.442;2023-02-21T06:20:17;97360.16;;;-13.12;71.37
56074;BME280;41950;55.840;37.442;2023-02-21T06:22:43;97328.03;;;-13.27;71.06
56074;BME280;41950;55.840;37.442;2023-02-21T06:25:08;97356.75;;;-13.14;70.79
56074;BME280;41950;55.840;37.442;2023-02-21T06:27:37;97357.78;;;-13.09;70.66
56074;BME280;41950;55.840;37.442;2023-02-21T06:30:04;97310.44;;;-13.30;70.70
56074;BME280;41950;55.840;37.442;2023-02-21T06:32:31;97342.22;;;-13.02;70.37
56074;BME280;41950;55.840;37.442;2023-02-21T06:34:57;97360.13;;;-12.90;70.14
56074;BME280;41950;55.840;37.442;2023-02-21T06:37:23;97356.41;;;-12.78;70.07
56074;BME280;41950;55.840;37.442;2023-02-21T06:39:50;97362.28;;;-12.76;69.50
56074;BME280;41950;55.840;37.442;2023-02-21T06:42:17;97363.53;;;-12.88;69.37
56074;BME280;41950;55.840;37.442;2023-02-21T06:44:44;97359.97;;;-12.94;69.56
56074;BME280;41950;55.840;37.442;2023-02-21T06:47:10;97311.69;;;-13.19;69.61
56074;BME280;41950;55.840;37.442;2023-02-21T06:49:36;97362.06;;;-12.83;69.64
56074;BME280;41950;55.840;37.442;2023-02-21T06:52:02;97365.97;;;-12.67;69.67
56074;BME280;41950;55.840;37.442;2023-02-21T06:54:28;97368.00;;;-12.57;69.38
56074;BME280;41950;55.840;37.442;2023-02-21T06:56:55;97364.50;;;-12.60;68.76
56074;BME280;41950;55.840;37.442;2023-02-21T06:59:24;97371.25;;;-12.59;68.88
56074;BME280;41950;55.840;37.442;2023-02-21T07:01:50;97377.00;;;-12.60;68.38
56074;BME280;41950;55.840;37.442;2023-02-21T07:04:16;97373.84;;;-12.56;68.50
56074;BME280;41950;55.840;37.442;2023-02-21T07:06:42;97297.72;;;-12.90;68.37
56074;BME280;41950;55.840;37.442;2023-02-21T07:09:07;97376.72;;;-12.45;67.73
56074;BME280;41950;55.840;37.442;2023-02-21T07:11:34;97357.66;;;-12.66;67.57
56074;BME280;41950;55.840;37.442;2023-02-21T07:14:00;97287.84;;;-13.11;67.51
56074;BME280;41950;55.840;37.442;2023-02-21T07:16:26;97328.81;;;-12.82;67.55
56074;BME280;41950;55.840;37.442;2023-02-21T07:18:52;97377.25;;;-12.54;67.51
56074;BME280;41950;55.840;37.442;2023-02-21T07:21:19;97342.31;;;-12.76;67.60
56074;BME280;41950;55.840;37.442;2023-02-21T07:23:46;97375.66;;;-12.52;67.56
56074;BME280;41950;55.840;37.442;2023-02-21T07:26:13;97372.50;;;-12.46;67.77
56074;BME280;41950;55.840;37.442;2023-02-21T07:28:39;97369.38;;;-12.41;67.43
56074;BME280;41950;55.840;37.442;2023-02-21T07:31:05;97363.25;;;-12.49;67.27
56074;BME280;41950;55.840;37.442;2023-02-21T07:33:30;97378.66;;;-12.37;67.62
56074;BME280;41950;55.840;37.442;2023-02-21T07:35:56;97383.31;;;-12.24;66.93
56074;BME280;41950;55.840;37.442;2023-02-21T07:38:23;97385.97;;;-12.19;67.09
56074;BME280;41950;55.840;37.442;2023-02-21T07:40:50;97382.00;;;-12.12;66.87
56074;BME280;41950;55.840;37.442;2023-02-21T07:43:16;97382.06;;;-12.11;66.32
56074;BME280;41950;55.840;37.442;2023-02-21T07:45:41;97383.66;;;-12.13;66.41
56074;BME280;41950;55.840;37.442;2023-02-21T07:48:07;97390.66;;;-12.04;66.26
56074;BME280;41950;55.840;37.442;2023-02-21T07:50:32;97334.47;;;-12.38;65.97
56074;BME280;41950;55.840;37.442;2023-02-21T07:52:58;97378.31;;;-12.24;66.08
56074;BME280;41950;55.840;37.442;2023-02-21T07:55:24;97342.38;;;-12.27;66.43
56074;BME280;41950;55.840;37.442;2023-02-21T07:57:50;97388.97;;;-11.78;66.45
56074;BME280;41950;55.840;37.442;2023-02-21T08:00:16;97376.56;;;-11.75;66.00
56074;BME280;41950;55.840;37.442;2023-02-21T08:02:46;97350.41;;;-11.85;65.40
56074;BME280;41950;55.840;37.442;2023-02-21T08:05:17;97391.19;;;-11.61;65.44
56074;BME280;41950;55.840;37.442;2023-02-21T08:07:44;97379.34;;;-11.66;64.83
56074;BME280;41950;55.840;37.442;2023-02-21T08:10:11;97379.91;;;-11.75;64.93
56074;BME280;41950;55.840;37.442;2023-02-21T08:12:38;97387.19;;;-11.56;65.32
56074;BME280;41950;55.840;37.442;2023-02-21T08:15:04;97373.28;;;-11.47;65.00
56074;BME280;41950;55.840;37.442;2023-02-21T08:17:31;97390.41;;;-11.33;64.84
56074;BME280;41950;55.840;37.442;2023-02-21T08:19:57;97402.22;;;-11.29;64.12
56074;BME280;41950;55.840;37.442;2023-02-21T08:22:22;97372.81;;;-11.36;64.33
56074;BME280;41950;55.840;37.442;2023-02-21T08:24:49;97375.56;;;-11.27;64.36
56074;BME280;41950;55.840;37.442;2023-02-21T08:27:16;97389.38;;;-11.12;64.12
56074;BME280;41950;55.840;37.442;2023-02-21T08:29:42;97323.22;;;-11.47;64.07
56074;BME280;41950;55.840;37.442;2023-02-21T08:32:08;97393.03;;;-11.01;63.66
56074;BME280;41950;55.840;37.442;2023-02-21T08:34:33;97378.94;;;-10.98;63.85
56074;BME280;41950;55.840;37.442;2023-02-21T08:36:59;97371.44;;;-10.98;63.35
56074;BME280;41950;55.840;37.442;2023-02-21T08:39:25;97281.31;;;-11.53;63.05
56074;BME280;41950;55.840;37.442;2023-02-21T08:41:54;97355.75;;;-10.92;62.98
56074;BME280;41950;55.840;37.442;2023-02-21T08:44:21;97404.56;;;-10.49;62.47
56074;BME280;41950;55.840;37.442;2023-02-21T08:46:47;97384.44;;;-10.52;62.25
56074;BME280;41950;55.840;37.442;2023-02-21T08:49:13;97388.69;;;-10.50;61.97
56074;BME280;41950;55.840;37.442;2023-02-21T08:51:39;97397.94;;;-10.47;61.82
56074;BME280;41950;55.840;37.442;2023-02-21T08:54:05;97396.53;;;-10.39;61.71
56074;BME280;41950;55.840;37.442;2023-02-21T08:56:31;97405.09;;;-10.31;61.41
56074;BME280;41950;55.840;37.442;2023-02-21T08:58:57;97404.53;;;-10.21;61.10
56074;BME280;41950;55.840;37.442;2023-02-21T09:01:28;97403.91;;;-10.12;60.95
56074;BME280;41950;55.840;37.442;2023-02-21T09:03:55;97399.72;;;-9.80;60.80
56074;BME280;41950;55.840;37.442;2023-02-21T09:06:20;97403.63;;;-9.58;60.25
56074;BME280;41950;55.840;37.442;2023-02-21T09:08:46;97397.50;;;-9.68;59.49
56074;BME280;41950;55.840;37.442;2023-02-21T09:11:11;97373.53;;;-9.90;59.07
56074;BME280;41950;55.840;37.442;2023-02-21T09:13:37;97377.41;;;-9.70;59.52
56074;BME280;41950;55.840;37.442;2023-02-21T09:16:03;97408.69;;;-9.22;59.25
56074;BME280;41950;55.840;37.442;2023-02-21T09:18:29;97391.19;;;-9.18;58.27
56074;BME280;41950;55.840;37.442;2023-02-21T09:20:55;97401.44;;;-9.09;57.97
56074;BME280;41950;55.840;37.442;2023-02-21T09:23:25;97403.91;;;-9.12;58.51
56074;BME280;41950;55.840;37.442;2023-02-21T09:25:51;97391.34;;;-9.12;59.23
56074;BME280;41950;55.840;37.442;2023-02-21T09:28:18;97402.69;;;-8.91;58.94
56074;BME280;41950;55.840;37.442;2023-02-21T09:30:44;97408.97;;;-8.73;58.32
56074;BME280;41950;55.840;37.442;2023-02-21T09:33:10;97408.25;;;-8.67;57.79
56074;BME280;41950;55.840;37.442;2023-02-21T09:35:36;97378.16;;;-8.62;58.16
56074;BME280;41950;55.840;37.442;2023-02-21T09:38:03;97409.91;;;-8.25;59.04
56074;BME280;41950;55.840;37.442;2023-02-21T09:40:47;97412.41;;;-8.25;58.81
56074;BME280;41950;55.840;37.442;2023-02-21T09:46:01;97408.56;;;-8.08;58.71
56074;BME280;41950;55.840;37.442;2023-02-21T09:48:28;97409.00;;;-8.29;57.90
56074;BME280;41950;55.840;37.442;2023-02-21T09:51:04;97403.53;;;-8.52;60.50
56074;BME280;41950;55.840;37.442;2023-02-21T09:53:34;97417.91;;;-8.46;60.89
56074;BME280;41950;55.840;37.442;2023-02-21T09:56:07;97401.75;;;-8.57;59.13
56074;BME280;41950;55.840;37.442;2023-02-21T09:58:38;97371.25;;;-9.10;60.12
56074;BME280;41950;55.840;37.442;2023-02-21T10:01:18;97359.03;;;-9.32;61.57
56074;BME280;41950;55.840;37.442;2023-02-21T10:04:20;97407.31;;;-9.08;61.00
56074;BME280;41950;55.840;37.442;2023-02-21T10:12:51;97410.19;;;-8.54;60.59
56074;BME280;41950;55.840;37.442;2023-02-21T10:17:55;97425.13;;;-8.61;59.61
56074;BME280;41950;55.840;37.442;2023-02-21T10:20:37;97416.19;;;-8.86;59.53
56074;BME280;41950;55.840;37.442;2023-02-21T10:23:21;97425.69;;;-8.75;61.69
56074;BME280;41950;55.840;37.442;2023-02-21T10:25:51;97419.22;;;-8.63;60.36
56074;BME280;41950;55.840;37.442;2023-02-21T10:28:22;97414.13;;;-8.66;59.45
56074;BME280;41950;55.840;37.442;2023-02-21T10:30:49;97430.63;;;-8.78;59.82
56074;BME280;41950;55.840;37.442;2023-02-21T10:33:16;97412.09;;;-8.83;61.01
56074;BME280;41950;55.840;37.442;2023-02-21T10:35:42;97435.09;;;-8.66;60.32
56074;BME280;41950;55.840;37.442;2023-02-21T10:38:18;97423.19;;;-8.75;59.61
56074;BME280;41950;55.840;37.442;2023-02-21T10:40:58;97432.91;;;-8.49;59.36
56074;BME280;41950;55.840;37.442;2023-02-21T10:43:37;97442.50;;;-8.31;59.26
56074;BME280;41950;55.840;37.442;2023-02-21T10:49:08;97444.16;;;-8.33;57.93
56074;BME280;41950;55.840;37.442;2023-02-21T10:51:40;97448.63;;;-8.59;57.43
56074;BME280;41950;55.840;37.442;2023-02-21T10:54:23;97439.38;;;-8.62;57.72
56074;BME280;41950;55.840;37.442;2023-02-21T10:56:52;97447.94;;;-8.52;57.38
56074;BME280;41950;55.840;37.442;2023-02-21T10:59:29;97421.84;;;-8.57;56.74
56074;BME280;41950;55.840;37.442;2023-02-21T11:01:56;97426.56;;;-8.33;56.85
56074;BME280;41950;55.840;37.442;2023-02-21T11:04:31;97457.41;;;-7.98;56.38
56074;BME280;41950;55.840;37.442;2023-02-21T11:14:40;97470.59;;;-8.51;57.98
56074;BME280;41950;55.840;37.442;2023-02-21T11:17:30;97478.84;;;-8.58;57.86
56074;BME280;41950;55.840;37.442;2023-02-21T11:22:40;97477.34;;;-8.50;57.29
56074;BME280;41950;55.840;37.442;2023-02-21T11:28:01;97483.84;;;-7.76;56.04
56074;BME280;41950;55.840;37.442;2023-02-21T11:30:29;97455.44;;;-7.69;55.81
56074;BME280;41950;55.840;37.442;2023-02-21T11:32:57;97477.97;;;-7.32;54.67
56074;BME280;41950;55.840;37.442;2023-02-21T11:35:28;97469.97;;;-7.56;53.89
56074;BME280;41950;55.840;37.442;2023-02-21T11:42:48;97409.81;;;-7.39;52.11
56074;BME280;41950;55.840;37.442;2023-02-21T11:45:27;97474.03;;;-7.14;52.26
56074;BME280;41950;55.840;37.442;2023-02-21T11:48:03;97489.09;;;-6.68;51.21
56074;BME280;41950;55.840;37.442;2023-02-21T11:50:38;97481.09;;;-6.39;51.07
56074;BME280;41950;55.840;37.442;2023-02-21T11:53:50;97500.72;;;-6.20;49.78
56074;BME280;41950;55.840;37.442;2023-02-21T11:56:34;97465.03;;;-6.44;49.21
56074;BME280;41950;55.840;37.442;2023-02-21T12:02:17;97501.06;;;-5.93;48.53
56074;BME280;41950;55.840;37.442;2023-02-21T12:07:49;97510.25;;;-5.22;47.66
56074;BME280;41950;55.840;37.442;2023-02-21T12:24:47;97527.13;;;-5.97;47.59
56074;BME280;41950;55.840;37.442;2023-02-21T12:36:16;97531.75;;;-5.59;46.92
56074;BME280;41950;55.840;37.442;2023-02-21T12:47:06;97559.63;;;-6.19;47.54
56074;BME280;41950;55.840;37.442;2023-02-21T12:52:38;97559.28;;;-5.79;47.55
56074;BME280;41950;55.840;37.442;2023-02-21T12:55:17;97517.81;;;-6.01;46.94
56074;BME280;41950;55.840;37.442;2023-02-21T12:58:09;97564.38;;;-5.77;46.93
56074;BME280;41950;55.840;37.442;2023-02-21T13:06:46;97563.19;;;-7.95;50.10
56074;BME280;41950;55.840;37.442;2023-02-21T13:09:34;97594.75;;;-8.49;52.36
56074;BME280;41950;55.840;37.442;2023-02-21T13:12:06;97598.81;;;-8.88;53.80
56074;BME280;41950;55.840;37.442;2023-02-21T13:14:47;97602.56;;;-9.04;55.16
56074;BME280;41950;55.840;37.442;2023-02-21T13:17:16;97523.34;;;-9.57;55.61
56074;BME280;41950;55.840;37.442;2023-02-21T13:20:09;97603.97;;;-9.15;55.51
56074;BME280;41950;55.840;37.442;2023-02-21T13:23:00;97608.69;;;-9.27;55.88
56074;BME280;41950;55.840;37.442;2023-02-21T13:28:29;97627.03;;;-9.30;56.74
56074;BME280;41950;55.840;37.442;2023-02-21T13:31:03;97624.16;;;-9.42;56.84
56074;BME280;41950;55.840;37.442;2023-02-21T13:33:37;97598.94;;;-9.77;57.73
56074;BME280;41950;55.840;37.442;2023-02-21T13:36:25;97603.53;;;-9.90;58.07
56074;BME280;41950;55.840;37.442;2023-02-21T13:39:02;97644.19;;;-9.74;58.77
56074;BME280;41950;55.840;37.442;2023-02-21T13:41:33;97594.69;;;-10.08;58.97
56074;BME280;41950;55.840;37.442;2023-02-21T13:44:04;97628.72;;;-9.87;59.19
56074;BME280;41950;55.840;37.442;2023-02-21T13:55:19;97661.63;;;-9.78;59.68
56074;BME280;41950;55.840;37.442;2023-02-21T14:00:45;97664.13;;;-9.78;59.78
56074;BME280;41950;55.840;37.442;2023-02-21T14:08:13;97689.16;;;-9.81;60.07
56074;BME280;41950;55.840;37.442;2023-02-21T14:10:43;97689.97;;;-9.82;60.18
56074;BME280;41950;55.840;37.442;2023-02-21T14:13:26;97678.06;;;-9.88;59.94
56074;BME280;41950;55.840;37.442;2023-02-21T14:16:07;97693.09;;;-9.88;59.96
56074;BME280;41950;55.840;37.442;2023-02-21T14:23:50;97712.78;;;-10.02;60.62
56074;BME280;41950;55.840;37.442;2023-02-21T14:26:37;97721.06;;;-10.04;60.59
56074;BME280;41950;55.840;37.442;2023-02-21T14:54:32;97770.13;;;-10.63;62.98
56074;BME280;41950;55.840;37.442;2023-02-21T15:03:17;97780.25;;;-10.84;63.71
56074;BME280;41950;55.840;37.442;2023-02-21T15:08:26;97793.53;;;-10.86;64.14
56074;BME280;41950;55.840;37.442;2023-02-21T15:10:56;97803.44;;;-10.89;64.24
56074;BME280;41950;55.840;37.442;2023-02-21T15:13:24;97807.34;;;-10.96;64.32
56074;BME280;41950;55.840;37.442;2023-02-21T15:16:05;97798.47;;;-11.10;64.69
56074;BME280;41950;55.840;37.442;2023-02-21T15:18:34;97819.31;;;-11.11;64.91
56074;BME280;41950;55.840;37.442;2023-02-21T15:23:36;97743.81;;;-11.67;65.05
56074;BME280;41950;55.840;37.442;2023-02-21T15:26:27;97822.50;;;-11.15;64.91
56074;BME280;41950;55.840;37.442;2023-02-21T15:29:10;97830.75;;;-11.18;65.29
56074;BME280;41950;55.840;37.442;2023-02-21T15:31:49;97837.44;;;-11.18;65.40
56074;BME280;41950;55.840;37.442;2023-02-21T15:36:57;97837.00;;;-11.29;65.70
56074;BME280;41950;55.840;37.442;2023-02-21T15:39:34;97835.06;;;-11.36;65.40
56074;BME280;41950;55.840;37.442;2023-02-21T15:42:02;97839.16;;;-11.38;65.64
56074;BME280;41950;55.840;37.442;2023-02-21T15:44:46;97851.00;;;-11.34;65.62
56074;BME280;41950;55.840;37.442;2023-02-21T15:47:16;97852.25;;;-11.45;65.92
56074;BME280;41950;55.840;37.442;2023-02-21T15:50:07;97865.06;;;-11.38;65.81
56074;BME280;41950;55.840;37.442;2023-02-21T15:55:31;97875.84;;;-11.39;65.92
56074;BME280;41950;55.840;37.442;2023-02-21T16:03:30;97901.19;;;-11.52;66.50
56074;BME280;41950;55.840;37.442;2023-02-21T16:06:22;97899.41;;;-11.55;66.46
56074;BME280;41950;55.840;37.442;2023-02-21T16:09:00;97907.59;;;-11.59;66.32
56074;BME280;41950;55.840;37.442;2023-02-21T16:14:16;97916.56;;;-11.64;66.89
56074;BME280;41950;55.840;37.442;2023-02-21T16:16:42;97927.38;;;-11.65;66.92
56074;BME280;41950;55.840;37.442;2023-02-21T16:19:08;97923.09;;;-11.67;67.04
56074;BME280;41950;55.840;37.442;2023-02-21T16:21:35;97924.56;;;-11.72;67.11
56074;BME280;41950;55.840;37.442;2023-02-21T16:24:39;97932.88;;;-11.73;67.12